Time;durP1;ratioP1;P1;durP2;ratioP2;P2;SDS_P1;SDS_P2;PMS_P1;PMS_P2;Temp;Humidity;BMP_temperature;BMP_pressure;BME280_temperature;BME280_humidity;BME280_pressure;Samples;Min_cycle;Max_cycle;Signal;HPM_P1;HPM_P2
2021/06/26 00:00:51;;;;;;;16.80;14.90;;;;;;;17.66;78.94;100691.16;5002505;28;20543;-58
2021/06/26 00:03:19;;;;;;;18.88;15.30;;;;;;;17.64;79.03;100684.19;4983975;28;20057;-59
2021/06/26 00:05:45;;;;;;;17.40;15.57;;;;;;;17.60;79.10;100686.25;4987067;28;20050;-58
2021/06/26 00:08:12;;;;;;;16.33;14.27;;;;;;;17.59;79.51;100692.56;4994977;28;20057;-58
2021/06/26 00:10:41;;;;;;;17.25;15.13;;;;;;;17.55;79.34;100693.72;4996283;28;20060;-61
2021/06/26 00:13:08;;;;;;;16.50;14.77;;;;;;;17.53;79.81;100693.84;4990980;28;20673;-59
2021/06/26 00:15:35;;;;;;;18.20;16.15;;;;;;;17.51;79.73;100694.91;4989543;28;20049;-59
2021/06/26 00:18:02;;;;;;;18.20;15.48;;;;;;;17.49;79.71;100688.81;4991101;28;20974;-60
2021/06/26 00:20:28;;;;;;;17.35;15.52;;;;;;;17.48;80.08;100695.13;4990220;28;20497;-58
2021/06/26 00:22:56;;;;;;;17.15;15.32;;;;;;;17.47;79.87;100696.94;4991045;28;20686;-58
2021/06/26 00:25:23;;;;;;;17.73;15.70;;;;;;;17.46;80.08;100697.94;4991311;28;20042;-59
2021/06/26 00:27:50;;;;;;;17.55;15.63;;;;;;;17.42;80.20;100699.09;4996788;28;20052;-58
2021/06/26 00:30:17;;;;;;;17.73;15.75;;;;;;;17.41;80.43;100701.88;4995607;28;20049;-59
2021/06/26 00:32:45;;;;;;;20.30;15.15;;;;;;;17.40;80.71;100706.38;4993156;28;20057;-59
2021/06/26 00:35:13;;;;;;;19.73;16.05;;;;;;;17.38;80.64;100704.78;4991606;28;20045;-58
2021/06/26 00:37:40;;;;;;;18.88;16.67;;;;;;;17.36;80.67;100712.06;4987066;28;20038;-59
2021/06/26 00:40:09;;;;;;;20.42;16.77;;;;;;;17.33;80.63;100704.22;4995043;28;20064;-59
2021/06/26 00:42:37;;;;;;;21.30;16.58;;;;;;;17.29;81.01;100714.31;4996916;28;20045;-59
2021/06/26 00:45:08;;;;;;;20.02;16.77;;;;;;;17.26;81.55;100709.19;4995307;28;20054;-57
2021/06/26 00:47:35;;;;;;;19.77;17.00;;;;;;;17.27;81.54;100707.34;4993779;28;20042;-59
2021/06/26 00:50:04;;;;;;;18.02;15.88;;;;;;;17.26;81.33;100706.50;4989356;28;20132;-58
2021/06/26 00:52:31;;;;;;;21.77;17.42;;;;;;;17.24;81.69;100704.88;4987302;28;20061;-57
2021/06/26 00:54:57;;;;;;;21.38;16.92;;;;;;;17.21;81.75;100697.91;4995733;28;20056;-59
2021/06/26 00:57:24;;;;;;;19.27;16.85;;;;;;;17.19;81.96;100703.38;5002492;28;20052;-59
2021/06/26 00:59:50;;;;;;;20.90;17.30;;;;;;;17.18;82.01;100700.81;4989418;28;20049;-58
2021/06/26 01:02:17;;;;;;;22.95;17.65;;;;;;;17.16;82.34;100694.69;4988953;28;20046;-58
2021/06/26 01:04:43;;;;;;;19.38;16.85;;;;;;;17.14;82.42;100694.84;4993235;28;20064;-58
2021/06/26 01:07:10;;;;;;;19.35;16.88;;;;;;;17.14;82.43;100705.53;4988395;28;20133;-57
2021/06/26 01:09:36;;;;;;;21.13;17.38;;;;;;;17.12;82.66;100704.78;4987900;28;20058;-58
2021/06/26 01:12:03;;;;;;;24.25;17.98;;;;;;;17.10;82.92;100709.38;4992966;28;20610;-58
2021/06/26 01:14:30;;;;;;;20.25;17.45;;;;;;;17.10;82.91;100709.38;4988221;28;20050;-57
2021/06/26 01:17:04;;;;;;;23.08;17.67;;;;;;;17.09;83.20;100698.78;4986505;28;20054;-59
2021/06/26 01:19:31;;;;;;;23.45;17.85;;;;;;;17.06;83.14;100699.84;4996874;28;20057;-59
2021/06/26 01:21:59;;;;;;;20.63;17.45;;;;;;;17.05;83.26;100695.44;4994949;28;20067;-58
2021/06/26 01:24:26;;;;;;;23.92;18.45;;;;;;;17.01;83.13;100693.09;4999543;28;20490;-58
2021/06/26 01:26:57;;;;;;;21.00;17.90;;;;;;;16.99;83.68;100692.38;4985750;28;20042;-60
2021/06/26 01:29:29;;;;;;;20.88;17.85;;;;;;;16.97;83.86;100695.13;4993658;28;20661;-58
2021/06/26 01:31:56;;;;;;;20.05;17.13;;;;;;;16.92;83.96;100678.53;4980875;28;20065;-58
2021/06/26 01:34:23;;;;;;;21.50;18.83;;;;;;;16.91;83.89;100686.66;4989372;28;20053;-59
2021/06/26 01:36:50;;;;;;;21.20;17.73;;;;;;;16.88;84.37;100687.72;4996517;28;20049;-58
2021/06/26 01:39:17;;;;;;;24.98;18.77;;;;;;;16.87;84.45;100688.69;4995464;28;20050;-58
2021/06/26 01:41:44;;;;;;;22.50;18.45;;;;;;;16.86;84.40;100678.94;4989191;28;20059;-58
2021/06/26 01:44:10;;;;;;;23.45;18.60;;;;;;;16.83;84.42;100679.19;4993691;28;20390;-57
2021/06/26 01:46:38;;;;;;;22.60;18.85;;;;;;;16.81;84.49;100686.44;4986326;28;20049;-58
2021/06/26 01:49:10;;;;;;;22.90;17.95;;;;;;;16.77;84.87;100683.13;5003543;28;20081;-59
2021/06/26 01:51:38;;;;;;;22.88;17.95;;;;;;;16.77;85.18;100677.78;4984753;28;20085;-57
2021/06/26 01:54:09;;;;;;;21.20;18.67;;;;;;;16.74;85.48;100677.97;4987424;28;20050;-57
2021/06/26 01:56:36;;;;;;;21.60;17.15;;;;;;;16.73;85.65;100668.22;4989607;28;20052;-58
2021/06/26 01:59:03;;;;;;;23.60;18.75;;;;;;;16.71;85.72;100667.47;4991276;28;20583;-58
2021/06/26 02:01:30;;;;;;;23.38;19.35;;;;;;;16.69;85.69;100668.53;4999179;28;20046;-57
2021/06/26 02:03:56;;;;;;;21.45;18.63;;;;;;;16.65;85.58;100664.38;4990031;28;20535;-58
2021/06/26 02:06:23;;;;;;;24.35;19.38;;;;;;;16.58;85.76;100671.06;4995370;28;20080;-57
2021/06/26 02:08:49;;;;;;;22.25;19.02;;;;;;;16.53;86.01;100670.53;4998338;28;20046;-58
2021/06/26 02:11:16;;;;;;;24.23;18.77;;;;;;;16.49;86.93;100676.09;4999232;28;20319;-60
2021/06/26 02:13:43;;;;;;;20.30;17.63;;;;;;;16.51;86.90;100684.00;5002756;28;20033;-57
2021/06/26 02:16:09;;;;;;;19.23;17.00;;;;;;;16.46;86.80;100678.94;4992997;28;20050;-59
2021/06/26 02:18:36;;;;;;;20.13;16.63;;;;;;;16.45;86.80;100679.06;4994079;28;20070;-60
2021/06/26 02:21:03;;;;;;;21.13;17.42;;;;;;;16.42;86.75;100679.25;5018695;28;20047;-59
2021/06/26 02:23:30;;;;;;;21.15;17.60;;;;;;;16.35;86.22;100681.50;5009825;28;20042;-58
2021/06/26 02:25:56;;;;;;;21.48;17.55;;;;;;;16.24;86.68;100692.00;4998335;28;20058;-60
2021/06/26 02:28:23;;;;;;;23.50;17.52;;;;;;;16.20;87.53;100689.66;5009582;28;20064;-59
2021/06/26 02:30:49;;;;;;;23.13;17.42;;;;;;;16.18;87.81;100689.75;4982341;28;20061;-58
2021/06/26 02:33:16;;;;;;;20.58;17.60;;;;;;;16.16;88.04;100697.00;4991905;28;20065;-58
2021/06/26 02:35:43;;;;;;;18.35;15.98;;;;;;;16.15;88.25;100703.31;4997110;28;20050;-58
2021/06/26 02:38:09;;;;;;;19.58;16.88;;;;;;;16.12;88.16;100700.84;4993630;28;20042;-58
2021/06/26 02:40:35;;;;;;;20.67;17.17;;;;;;;16.10;87.96;100703.59;4991046;28;20058;-59
2021/06/26 02:43:02;;;;;;;20.23;17.20;;;;;;;16.08;88.35;100701.97;4994867;28;20046;-58
2021/06/26 02:45:29;;;;;;;19.40;16.95;;;;;;;16.06;88.54;100702.09;4998368;28;20050;-59
2021/06/26 02:47:55;;;;;;;19.88;17.42;;;;;;;16.05;88.41;100691.53;4992208;28;20045;-57
2021/06/26 02:50:22;;;;;;;22.90;17.50;;;;;;;16.02;88.51;100699.72;5004143;28;20812;-59
2021/06/26 02:52:48;;;;;;;21.25;18.23;;;;;;;16.00;88.78;100699.81;4988857;28;20046;-59
2021/06/26 02:55:15;;;;;;;21.48;19.15;;;;;;;16.01;89.25;100698.88;4991449;28;20412;-59
2021/06/26 02:57:41;;;;;;;23.60;19.10;;;;;;;16.03;89.41;100698.78;4987712;28;20133;-59
2021/06/26 03:00:09;;;;;;;22.85;19.38;;;;;;;16.00;89.35;100694.47;4988462;28;20057;-57
2021/06/26 03:02:35;;;;;;;26.23;19.80;;;;;;;15.96;88.95;100689.44;4997287;28;20046;-58
2021/06/26 03:05:03;;;;;;;22.42;19.13;;;;;;;15.93;89.47;100689.63;4988393;28;20450;-58
2021/06/26 03:07:30;;;;;;;23.42;19.15;;;;;;;15.93;89.37;100687.81;4990845;28;20523;-57
2021/06/26 03:09:56;;;;;;;22.88;19.05;;;;;;;15.92;89.46;100698.59;4989100;28;20064;-58
2021/06/26 03:12:23;;;;;;;24.05;18.80;;;;;;;15.88;89.39;100697.09;4995642;28;20050;-57
2021/06/26 03:14:49;;;;;;;24.77;18.67;;;;;;;15.84;89.36;100699.09;4998314;28;20049;-59
2021/06/26 03:17:16;;;;;;;20.67;17.60;;;;;;;15.83;89.75;100694.72;4991660;28;20563;-57
2021/06/26 03:19:42;;;;;;;20.20;17.05;;;;;;;15.82;89.61;100690.31;4998484;28;20689;-58
2021/06/26 03:22:09;;;;;;;22.80;16.75;;;;;;;15.78;89.51;100697.66;4991429;28;20058;-59
2021/06/26 03:24:35;;;;;;;21.50;16.55;;;;;;;15.75;89.28;100694.31;4995868;28;20046;-59
2021/06/26 03:27:02;;;;;;;20.45;16.90;;;;;;;15.72;88.81;100703.41;4994511;28;20049;-58
2021/06/26 03:29:29;;;;;;;17.45;15.50;;;;;;;15.68;88.69;100693.88;4991310;28;20053;-58
2021/06/26 03:31:55;;;;;;;18.25;16.02;;;;;;;15.62;87.95;100699.59;5000502;28;20054;-58
2021/06/26 03:34:22;;;;;;;17.23;15.32;;;;;;;15.56;88.16;100700.00;4994027;28;20468;-57
2021/06/26 03:36:48;;;;;;;19.33;15.10;;;;;;;15.49;88.36;100703.09;4995699;28;20046;-59
2021/06/26 03:39:15;;;;;;;16.88;14.80;;;;;;;15.43;87.77;100699.84;4995836;28;20524;-57
2021/06/26 03:41:41;;;;;;;17.83;15.02;;;;;;;15.38;87.97;100701.09;4985379;28;20462;-60
2021/06/26 03:44:08;;;;;;;18.55;15.63;;;;;;;15.36;88.15;100703.84;4999485;28;20042;-60
2021/06/26 03:46:36;;;;;;;17.42;14.88;;;;;;;15.34;88.12;100705.75;4993382;28;20052;-59
2021/06/26 03:49:04;;;;;;;17.60;15.13;;;;;;;15.31;88.04;100710.41;4973951;28;20716;-59
2021/06/26 03:51:30;;;;;;;16.10;14.40;;;;;;;15.28;87.96;100710.59;4991570;28;20061;-59
2021/06/26 03:53:57;;;;;;;16.13;14.35;;;;;;;15.21;88.10;100703.94;4995098;28;20057;-59
2021/06/26 03:56:24;;;;;;;16.52;14.23;;;;;;;15.17;87.58;100705.06;4999564;28;20057;-57
2021/06/26 03:58:50;;;;;;;20.13;15.48;;;;;;;15.09;87.66;100713.56;4986318;28;20054;-59
2021/06/26 04:01:17;;;;;;;16.70;14.48;;;;;;;15.10;88.46;100712.59;4994652;28;20058;-57
2021/06/26 04:03:46;;;;;;;15.88;14.18;;;;;;;15.12;88.60;100709.81;4993155;28;20761;-57
2021/06/26 04:06:12;;;;;;;20.02;14.98;;;;;;;15.15;88.37;100710.50;4995896;28;20056;-57
2021/06/26 04:08:39;;;;;;;18.00;14.48;;;;;;;15.15;88.30;100709.63;5000381;28;20049;-58
2021/06/26 04:11:07;;;;;;;18.15;15.00;;;;;;;15.17;87.98;100715.75;4994838;28;20060;-57
2021/06/26 04:13:33;;;;;;;16.15;13.77;;;;;;;15.18;87.88;100725.47;4995595;28;21590;-57
2021/06/26 04:16:00;;;;;;;18.50;14.90;;;;;;;15.14;87.26;100724.78;4987369;28;20061;-56
2021/06/26 04:18:26;;;;;;;20.40;15.60;;;;;;;15.12;88.01;100726.69;4996177;28;20056;-59
2021/06/26 04:20:53;;;;;;;16.35;14.55;;;;;;;15.14;88.37;100721.25;4992919;28;20983;-60
2021/06/26 04:23:19;;;;;;;18.42;14.55;;;;;;;15.19;87.99;100720.03;4991558;28;20048;-60
2021/06/26 04:25:51;;;;;;;16.90;13.88;;;;;;;15.23;88.00;100715.38;4995371;28;20056;-58
2021/06/26 04:28:17;;;;;;;19.38;14.77;;;;;;;15.25;87.50;100717.00;4995309;28;20260;-58
2021/06/26 04:30:44;;;;;;;21.88;15.57;;;;;;;15.23;87.87;100718.06;5000642;28;20045;-57
2021/06/26 04:33:11;;;;;;;23.83;16.15;;;;;;;15.26;88.41;100716.06;5017014;28;20060;-57
2021/06/26 04:35:38;;;;;;;21.90;17.70;;;;;;;15.27;88.34;100719.56;5014903;28;20061;-58
2021/06/26 04:38:05;;;;;;;20.52;17.65;;;;;;;15.30;88.75;100722.03;5014215;28;20544;-58
2021/06/26 04:40:31;;;;;;;23.08;17.02;;;;;;;15.36;nan;100721.69;5013584;28;20049;-59
2021/06/26 04:42:58;;;;;;;22.70;18.70;;;;;;;15.45;89.38;100724.63;5011468;28;20508;-57
2021/06/26 04:45:25;;;;;;;23.08;18.45;;;;;;;15.54;89.08;100727.69;5009826;28;20118;-59
2021/06/26 04:47:52;;;;;;;24.08;19.10;;;;;;;15.60;89.07;100722.84;5006984;28;20046;-58
2021/06/26 04:50:18;;;;;;;23.33;18.75;;;;;;;15.70;89.21;100725.81;5011016;28;20049;-57
2021/06/26 04:52:46;;;;;;;25.45;20.17;;;;;;;15.76;88.94;100731.59;5004270;28;20054;-58
2021/06/26 04:55:12;;;;;;;22.05;19.17;;;;;;;15.83;88.90;100731.22;5005864;28;20046;-58
2021/06/26 04:57:39;;;;;;;25.58;20.38;;;;;;;15.93;88.98;100735.03;5011389;28;20065;-59
2021/06/26 05:00:07;;;;;;;26.23;19.63;;;;;;;16.03;88.58;100736.16;5015941;28;20061;-58
2021/06/26 05:02:33;;;;;;;24.40;20.45;;;;;;;16.11;88.47;100734.72;5005398;28;20465;-56
2021/06/26 05:05:00;;;;;;;24.60;20.08;;;;;;;16.20;88.28;100737.75;5001552;28;20049;-58
2021/06/26 05:07:26;;;;;;;27.67;21.67;;;;;;;16.27;87.97;100739.91;5013804;28;20061;-57
2021/06/26 05:09:53;;;;;;;25.33;21.27;;;;;;;16.33;87.27;100727.97;5013616;28;20050;-58
2021/06/26 05:12:19;;;;;;;24.25;20.02;;;;;;;16.34;86.32;100740.38;5010320;28;20071;-58
2021/06/26 05:14:46;;;;;;;24.40;18.85;;;;;;;16.34;86.83;100738.56;5020814;28;20050;-56
2021/06/26 05:17:13;;;;;;;23.95;19.48;;;;;;;16.38;87.05;100740.06;5010313;28;20401;-57
2021/06/26 05:19:40;;;;;;;23.05;19.40;;;;;;;16.43;86.68;100737.09;5014478;28;20045;-57
2021/06/26 05:22:06;;;;;;;23.45;19.05;;;;;;;16.48;86.76;100738.53;5013994;28;20075;-59
2021/06/26 05:24:33;;;;;;;23.05;19.27;;;;;;;16.53;86.39;100734.69;5008467;28;20046;-57
2021/06/26 05:26:59;;;;;;;26.58;21.05;;;;;;;16.56;86.38;100734.47;5018110;28;20056;-58
2021/06/26 05:29:26;;;;;;;26.88;19.95;;;;;;;16.61;86.28;100738.56;5018666;28;20064;-58
2021/06/26 05:31:52;;;;;;;23.92;19.13;;;;;;;16.68;85.84;100736.38;5012444;28;20484;-58
2021/06/26 05:34:19;;;;;;;25.88;19.60;;;;;;;16.77;85.86;100741.97;5027355;28;20045;-58
2021/06/26 05:36:45;;;;;;;30.15;20.92;;;;;;;16.83;85.15;100744.22;5014089;28;20054;-57
2021/06/26 05:39:12;;;;;;;25.23;21.05;;;;;;;16.90;84.96;100741.97;5011480;28;20584;-59
2021/06/26 05:41:38;;;;;;;27.55;21.17;;;;;;;16.98;84.59;100736.97;5019449;28;20406;-59
2021/06/26 05:44:05;;;;;;;30.08;21.23;;;;;;;17.06;84.36;100733.78;5024695;28;20038;-58
2021/06/26 05:46:31;;;;;;;27.80;22.70;;;;;;;17.13;84.15;100741.28;5023724;28;20041;-58
2021/06/26 05:48:59;;;;;;;31.85;23.15;;;;;;;17.17;83.55;100737.41;5015747;28;20050;-59
2021/06/26 05:51:25;;;;;;;30.95;23.55;;;;;;;17.22;83.60;100733.56;5024235;28;20691;-58
2021/06/26 05:53:52;;;;;;;28.60;22.95;;;;;;;17.33;83.30;100741.69;5019800;28;20044;-58
2021/06/26 05:56:18;;;;;;;30.05;22.85;;;;;;;17.41;83.17;100739.38;4998043;28;20148;-56
2021/06/26 05:58:45;;;;;;;29.23;23.27;;;;;;;17.52;83.01;100744.81;5022810;28;20053;-57
2021/06/26 06:01:11;;;;;;;30.67;24.08;;;;;;;17.65;82.41;100740.34;5014997;28;20497;-63
2021/06/26 06:03:42;;;;;;;29.45;23.85;;;;;;;17.78;82.08;100741.22;5029782;28;20137;-58
2021/06/26 06:06:09;;;;;;;32.25;25.15;;;;;;;17.90;79.53;100746.63;5017452;28;20064;-59
2021/06/26 06:08:35;;;;;;;30.38;24.27;;;;;;;18.03;79.78;100748.31;5032288;28;20135;-59
2021/06/26 06:11:02;;;;;;;26.92;22.60;;;;;;;18.32;79.87;100748.88;5015225;28;20688;-60
2021/06/26 06:13:28;;;;;;;28.35;22.20;;;;;;;18.69;78.25;100757.78;5013710;28;20062;-58
2021/06/26 06:15:55;;;;;;;28.65;22.45;;;;;;;19.08;74.62;100747.66;5022479;28;20413;-57
2021/06/26 06:18:21;;;;;;;28.70;22.63;;;;;;;19.24;73.96;100748.19;5013353;28;20454;-61
2021/06/26 06:20:48;;;;;;;26.15;21.85;;;;;;;19.45;73.49;100749.19;5030346;28;20045;-57
2021/06/26 06:23:15;;;;;;;32.40;22.35;;;;;;;19.93;71.94;100749.00;5029272;28;20056;-60
2021/06/26 06:25:42;;;;;;;26.88;21.83;;;;;;;20.44;70.33;100749.34;5018329;28;20268;-59
2021/06/26 06:28:09;;;;;;;25.02;21.90;;;;;;;20.96;68.42;100753.03;5019006;28;20109;-60
2021/06/26 06:30:35;;;;;;;24.10;20.55;;;;;;;21.47;67.61;100752.28;5012635;28;20041;-58
2021/06/26 06:33:03;;;;;;;23.75;20.60;;;;;;;21.79;63.81;100753.00;4996880;28;20064;-59
2021/06/26 06:35:31;;;;;;;24.83;20.75;;;;;;;21.94;62.35;100754.34;4991696;28;20073;-60
2021/06/26 06:37:58;;;;;;;22.08;19.55;;;;;;;22.04;62.53;100757.97;4990017;28;20054;-58
2021/06/26 06:40:25;;;;;;;23.83;20.75;;;;;;;22.08;61.24;100757.69;4997431;28;20049;-57
2021/06/26 06:42:51;;;;;;;24.05;21.48;;;;;;;22.16;61.45;100766.81;4984158;28;20057;-56
2021/06/26 06:45:18;;;;;;;23.85;20.05;;;;;;;22.65;60.92;100762.38;4988693;28;20455;-56
2021/06/26 06:47:44;;;;;;;24.08;21.35;;;;;;;22.87;58.29;100759.41;4987517;28;20041;-56
2021/06/26 06:50:13;;;;;;;24.65;20.23;;;;;;;23.08;56.99;100761.97;4993138;28;20439;-54
2021/06/26 06:52:39;;;;;;;24.50;20.75;;;;;;;23.25;56.96;100765.81;4995138;28;20049;-58
2021/06/26 06:55:08;;;;;;;24.00;19.45;;;;;;;23.34;58.90;100759.50;4986530;28;20042;-56
2021/06/26 06:57:34;;;;;;;23.33;18.50;;;;;;;23.50;58.64;100756.22;4996631;28;20072;-56
2021/06/26 07:00:01;;;;;;;23.55;19.90;;;;;;;23.70;56.11;100750.63;4984508;28;21506;-56
2021/06/26 07:02:27;;;;;;;20.70;18.45;;;;;;;23.53;55.42;100758.66;4992945;28;20054;-63
2021/06/26 07:04:54;;;;;;;20.60;18.10;;;;;;;23.28;56.47;100749.31;5006155;28;20136;-60
2021/06/26 07:07:20;;;;;;;22.10;18.17;;;;;;;23.19;58.88;100751.00;5002043;28;20050;-60
2021/06/26 07:09:47;;;;;;;21.92;18.48;;;;;;;23.21;56.51;100754.41;4995587;28;20515;-60
2021/06/26 07:12:13;;;;;;;21.60;18.23;;;;;;;23.16;55.61;100743.19;4990883;28;20057;-61
2021/06/26 07:14:40;;;;;;;20.35;17.88;;;;;;;23.15;56.46;100746.03;4997382;28;20504;-59
2021/06/26 07:17:06;;;;;;;22.70;17.35;;;;;;;23.09;58.01;100742.06;4999517;28;20050;-60
2021/06/26 07:19:33;;;;;;;23.52;16.83;;;;;;;23.26;58.55;100735.94;4992982;28;20065;-60
2021/06/26 07:22:00;;;;;;;22.73;15.75;;;;;;;23.42;57.24;100736.19;5003861;28;20110;-60
2021/06/26 07:24:26;;;;;;;19.98;16.85;;;;;;;23.50;54.54;100742.69;4997740;28;20049;-57
2021/06/26 07:26:54;;;;;;;17.73;15.75;;;;;;;23.55;56.22;100749.41;4998631;28;20058;-60
2021/06/26 07:29:20;;;;;;;19.73;16.65;;;;;;;23.70;54.86;100749.78;4993731;28;20524;-58
2021/06/26 07:31:48;;;;;;;17.75;15.45;;;;;;;23.72;53.87;100745.94;4992138;28;20530;-61
2021/06/26 07:34:14;;;;;;;19.92;15.65;;;;;;;23.61;54.90;100743.38;4993434;28;20082;-59
2021/06/26 07:36:41;;;;;;;20.45;16.20;;;;;;;23.70;55.38;100749.78;4990863;28;20046;-60
2021/06/26 07:39:08;;;;;;;15.90;14.35;;;;;;;23.78;54.43;100742.63;4988848;28;20053;-62
2021/06/26 07:41:34;;;;;;;21.50;16.15;;;;;;;23.66;53.88;100742.97;4977171;28;20060;-60
2021/06/26 07:44:02;;;;;;;22.02;15.93;;;;;;;23.60;54.83;100733.59;4989504;28;20141;-59
2021/06/26 07:46:28;;;;;;;18.48;15.27;;;;;;;23.32;53.30;100735.34;4993989;28;21039;-59
2021/06/26 07:48:55;;;;;;;20.70;15.05;;;;;;;23.29;54.81;100735.66;4989252;28;20571;-60
2021/06/26 07:51:21;;;;;;;17.02;15.00;;;;;;;23.32;54.02;100735.34;4988129;28;20042;-58
2021/06/26 07:53:48;;;;;;;19.73;15.30;;;;;;;23.35;54.41;100732.34;4991356;28;20065;-60
2021/06/26 07:56:14;;;;;;;16.80;14.98;;;;;;;23.37;54.63;100727.66;4991647;28;20049;-59
2021/06/26 07:58:41;;;;;;;17.35;15.25;;;;;;;23.50;53.63;100731.88;4997450;28;20117;-60
2021/06/26 08:01:07;;;;;;;16.02;14.32;;;;;;;23.58;53.79;100729.34;4993622;28;20050;-60
2021/06/26 08:03:35;;;;;;;16.02;14.07;;;;;;;23.73;51.63;100719.75;4995428;28;20149;-59
2021/06/26 08:06:01;;;;;;;17.98;13.90;;;;;;;23.81;52.49;100714.44;4979757;28;20144;-61
2021/06/26 08:08:28;;;;;;;17.58;14.40;;;;;;;23.91;51.52;100709.00;4984385;28;20060;-60
2021/06/26 08:10:54;;;;;;;17.77;13.52;;;;;;;23.81;53.32;100717.13;4997575;28;20065;-57
2021/06/26 08:13:22;;;;;;;16.60;13.75;;;;;;;23.88;52.97;100720.09;4993731;28;20048;-60
2021/06/26 08:15:49;;;;;;;15.93;13.35;;;;;;;23.97;51.82;100711.09;4999264;28;20278;-61
2021/06/26 08:18:16;;;;;;;14.27;11.90;;;;;;;23.96;50.61;100721.03;4988229;28;20049;-59
2021/06/26 08:20:43;;;;;;;13.00;10.38;;;;;;;24.08;51.71;100705.50;4989998;28;20060;-61
2021/06/26 08:23:10;;;;;;;14.10;11.90;;;;;;;24.31;50.66;100708.63;5000328;28;20058;-60
2021/06/26 08:25:37;;;;;;;15.77;11.80;;;;;;;24.24;50.77;100696.72;4993101;28;20042;-59
2021/06/26 08:28:04;;;;;;;12.65;10.63;;;;;;;24.32;48.78;100707.63;4991146;28;20058;-62
2021/06/26 08:30:31;;;;;;;10.68;9.02;;;;;;;24.23;46.85;100708.53;4988326;28;20424;-62
2021/06/26 08:32:59;;;;;;;9.88;8.75;;;;;;;24.06;47.37;100702.94;5016097;28;20057;-60
2021/06/26 08:35:25;;;;;;;10.35;7.88;;;;;;;23.93;45.94;100702.41;5008980;28;20041;-61
2021/06/26 08:37:52;;;;;;;9.32;6.75;;;;;;;23.96;47.03;100702.13;5016024;28;20423;-60
2021/06/26 08:40:19;;;;;;;7.50;6.75;;;;;;;24.19;46.64;100696.31;5010555;28;20054;-61
2021/06/26 08:42:47;;;;;;;6.82;6.00;;;;;;;24.32;44.67;100699.50;4994036;28;20531;-60
2021/06/26 08:45:16;;;;;;;7.05;4.97;;;;;;;24.20;43.79;100698.00;4996736;28;20045;-59
2021/06/26 08:47:51;;;;;;;9.98;5.20;;;;;;;24.26;44.33;100700.13;5012162;28;20049;-61
2021/06/26 08:50:19;;;;;;;5.10;4.60;;;;;;;24.14;44.12;100694.03;5009053;28;20560;-61
2021/06/26 08:52:46;;;;;;;8.20;6.05;;;;;;;24.07;45.61;100696.53;5009751;28;20469;-60
2021/06/26 08:55:13;;;;;;;9.93;6.30;;;;;;;24.25;47.03;100698.41;5010496;28;20513;-60
2021/06/26 08:57:42;;;;;;;7.55;6.78;;;;;;;24.30;45.18;100698.81;5016963;28;20053;-61
2021/06/26 09:00:25;;;;;;;8.80;7.22;;;;;;;24.25;46.40;100701.13;5012633;28;20049;-58
2021/06/26 09:03:06;;;;;;;9.98;7.93;;;;;;;24.30;46.95;100698.81;5021187;28;20076;-61
2021/06/26 09:05:32;;;;;;;7.88;6.85;;;;;;;24.42;47.71;100690.31;5018736;28;20070;-60
2021/06/26 09:08:17;;;;;;;9.50;6.90;;;;;;;24.57;47.04;100682.50;5017563;28;20065;-60
2021/06/26 09:10:45;;;;;;;7.30;6.05;;;;;;;24.55;45.38;100692.66;5012230;28;20057;-62
2021/06/26 09:13:24;;;;;;;7.10;6.40;;;;;;;24.59;44.72;100685.91;5012774;28;20041;-60
2021/06/26 09:16:21;;;;;;;8.47;6.57;;;;;;;24.76;45.04;100690.47;4996814;28;20050;-61
2021/06/26 09:18:49;;;;;;;6.95;6.30;;;;;;;24.95;45.21;100688.63;5000034;28;20136;-60
2021/06/26 09:21:31;;;;;;;7.57;6.68;;;;;;;25.12;44.70;100691.28;5012321;28;20418;-60
2021/06/26 09:24:05;;;;;;;8.77;7.32;;;;;;;25.02;44.24;100692.41;5012606;28;20621;-59
2021/06/26 09:26:33;;;;;;;9.48;8.23;;;;;;;24.58;44.53;100696.88;5012474;28;20091;-58
2021/06/26 09:29:14;;;;;;;8.48;7.60;;;;;;;24.23;45.67;100695.88;5013655;28;20064;-59
2021/06/26 09:32:01;;;;;;;9.30;7.15;;;;;;;23.96;46.00;100685.03;5000749;28;20050;-61
2021/06/26 09:34:38;;;;;;;8.13;7.40;;;;;;;23.76;46.99;100687.84;4990421;28;20084;-60
2021/06/26 09:37:10;;;;;;;7.63;6.93;;;;;;;23.73;47.23;100687.31;4995661;28;20046;-61
2021/06/26 09:39:41;;;;;;;7.82;7.13;;;;;;;23.86;47.02;100692.34;4997123;28;20505;-61
2021/06/26 09:42:18;;;;;;;8.00;6.80;;;;;;;23.95;46.41;100689.59;4994979;28;20053;-61
2021/06/26 09:44:50;;;;;;;10.05;6.55;;;;;;;24.18;47.23;100690.03;4973875;28;20057;-59
2021/06/26 09:47:30;;;;;;;7.45;6.65;;;;;;;24.32;45.40;100684.13;4989665;28;20049;-61
2021/06/26 09:50:06;;;;;;;7.45;6.63;;;;;;;24.36;45.19;100681.97;4992278;28;20053;-61
2021/06/26 09:52:50;;;;;;;7.05;6.35;;;;;;;24.55;46.43;100689.09;4990711;28;20049;-58
2021/06/26 09:55:37;;;;;;;7.13;6.50;;;;;;;24.65;46.49;100679.88;4992613;28;20058;-59
2021/06/26 09:58:16;;;;;;;7.18;6.47;;;;;;;24.49;46.09;100685.16;4994036;28;20056;-61
2021/06/26 10:00:45;;;;;;;7.05;6.35;;;;;;;24.25;46.47;100690.28;4991440;28;20053;-60
2021/06/26 10:03:16;;;;;;;8.23;6.95;;;;;;;24.02;46.17;100677.19;5001446;28;20104;-60
2021/06/26 10:05:46;;;;;;;8.13;6.85;;;;;;;23.85;47.57;100680.69;5005843;28;20137;-59
2021/06/26 10:08:15;;;;;;;12.00;8.43;;;;;;;23.70;47.25;100684.88;4993091;28;20046;-60
2021/06/26 10:10:42;;;;;;;8.18;6.60;;;;;;;23.70;49.08;100679.47;4992361;28;20055;-61
2021/06/26 10:13:13;;;;;;;7.68;6.88;;;;;;;23.73;47.68;100673.78;4996093;28;20061;-62
2021/06/26 10:15:40;;;;;;;10.30;7.20;;;;;;;23.74;48.46;100675.50;5004380;28;20065;-59
2021/06/26 10:18:10;;;;;;;8.75;6.60;;;;;;;23.73;47.90;100662.97;5007841;28;20141;-62
2021/06/26 10:20:37;;;;;;;9.48;7.43;;;;;;;23.74;47.47;100670.06;4997525;28;20144;-61
2021/06/26 10:23:05;;;;;;;7.78;7.07;;;;;;;23.67;47.35;100661.69;4994193;28;20045;-62
2021/06/26 10:25:36;;;;;;;7.20;6.45;;;;;;;23.70;46.85;100664.13;4996521;28;20050;-59
2021/06/26 10:28:08;;;;;;;8.20;7.15;;;;;;;23.88;46.71;100668.72;5003470;28;20049;-62
2021/06/26 10:30:36;;;;;;;8.70;6.78;;;;;;;23.89;45.39;100652.34;4992793;28;20065;-61
2021/06/26 10:33:06;;;;;;;6.90;6.22;;;;;;;23.86;45.96;100658.06;4999187;28;20049;-59
2021/06/26 10:35:35;;;;;;;8.00;6.55;;;;;;;23.81;45.69;100654.94;4997744;28;20041;-58
2021/06/26 10:38:06;;;;;;;6.50;5.90;;;;;;;23.79;45.79;100654.22;5004674;28;20053;-62
2021/06/26 10:40:39;;;;;;;7.95;6.95;;;;;;;23.64;45.69;100653.03;5005659;28;20069;-60
2021/06/26 10:43:24;;;;;;;7.32;6.43;;;;;;;23.61;46.62;100653.34;4993307;28;20046;-60
2021/06/26 10:46:07;;;;;;;6.88;6.18;;;;;;;23.66;45.70;100651.88;4976727;28;20163;-59
2021/06/26 10:48:35;;;;;;;7.18;6.25;;;;;;;23.72;45.75;100643.19;4997350;28;20065;-62
2021/06/26 10:51:07;;;;;;;7.03;6.32;;;;;;;23.98;45.65;100651.41;5010851;28;20050;-61
2021/06/26 10:53:36;;;;;;;6.75;6.10;;;;;;;24.25;46.49;100642.44;5009837;28;20771;-60
2021/06/26 10:56:09;;;;;;;6.60;6.00;;;;;;;24.41;45.02;100645.28;5008520;28;20532;-58
2021/06/26 10:58:41;;;;;;;8.20;6.00;;;;;;;24.44;45.84;100644.13;5005070;28;20049;-60
2021/06/26 11:01:22;;;;;;;6.38;5.53;;;;;;;24.39;46.25;100643.78;5013756;28;20050;-60
2021/06/26 11:03:51;;;;;;;6.35;5.75;;;;;;;24.28;45.70;100642.13;4996693;28;20509;-61
2021/06/26 11:06:24;;;;;;;6.43;5.72;;;;;;;24.19;46.36;100643.03;5003309;28;20056;-61
2021/06/26 11:08:56;;;;;;;7.25;6.55;;;;;;;24.20;46.52;100633.06;5021316;28;20045;-61
2021/06/26 11:11:35;;;;;;;8.77;6.05;;;;;;;24.41;44.04;100636.31;5014002;28;20062;-61
2021/06/26 11:14:09;;;;;;;7.05;6.35;;;;;;;24.63;43.18;100632.28;5014636;28;20559;-61
2021/06/26 11:16:37;;;;;;;7.20;6.15;;;;;;;24.81;42.69;100628.56;5011909;28;20160;-60